Terminal Aerodrome Forecast
Issued by NWS Shreveport, LA

Home | Current Version | Previous Version | Text Only | Print | Product List | Glossary On
Versions: 1 2 3 4 5 6 7 8 9 10 11 12 13 14
487
FTUS44 KSHV 032338
TAFSHV
TAF
KSHV 032338Z 0400/0424 08007KT 5SM RA OVC010
     FM040300 04010KT 3SM -RA BR OVC003
     FM042000 36006KT 5SM BR VCSH OVC010=

USA.gov is the U.S. government's official web portal to all federal, state and local government web resources and services.